sensor_id;sensor_type;location;lat;lon;timestamp;P1;durP1;ratioP1;P2;durP2;ratioP2
48026;SDS011;50714;49.208;5.364;2023-03-20T00:04:58;11.77;;;9.98;;
48026;SDS011;50714;49.208;5.364;2023-03-20T00:14:59;11.25;;;10.05;;
48026;SDS011;50714;49.208;5.364;2023-03-20T00:25:03;13.43;;;10.90;;
48026;SDS011;50714;49.208;5.364;2023-03-20T00:35:13;13.25;;;10.95;;
48026;SDS011;50714;49.208;5.364;2023-03-20T00:45:20;14.77;;;12.52;;
48026;SDS011;50714;49.208;5.364;2023-03-20T00:55:22;12.07;;;10.40;;
48026;SDS011;50714;49.208;5.364;2023-03-20T01:05:25;13.13;;;11.68;;
48026;SDS011;50714;49.208;5.364;2023-03-20T01:15:29;12.63;;;11.02;;
48026;SDS011;50714;49.208;5.364;2023-03-20T01:25:31;13.95;;;11.50;;
48026;SDS011;50714;49.208;5.364;2023-03-20T01:35:32;13.90;;;12.03;;
48026;SDS011;50714;49.208;5.364;2023-03-20T01:45:33;13.70;;;11.90;;
48026;SDS011;50714;49.208;5.364;2023-03-20T01:55:34;14.27;;;12.20;;
48026;SDS011;50714;49.208;5.364;2023-03-20T02:05:37;14.60;;;11.68;;
48026;SDS011;50714;49.208;5.364;2023-03-20T03:07:28;18.58;;;15.65;;
48026;SDS011;50714;49.208;5.364;2023-03-20T03:17:32;16.65;;;14.55;;
48026;SDS011;50714;49.208;5.364;2023-03-20T03:27:36;16.92;;;14.20;;
48026;SDS011;50714;49.208;5.364;2023-03-20T03:37:42;16.25;;;13.18;;
48026;SDS011;50714;49.208;5.364;2023-03-20T03:47:48;14.45;;;12.18;;
48026;SDS011;50714;49.208;5.364;2023-03-20T03:57:54;14.18;;;11.95;;
48026;SDS011;50714;49.208;5.364;2023-03-20T04:08:08;13.73;;;11.63;;
48026;SDS011;50714;49.208;5.364;2023-03-20T04:18:15;13.35;;;11.23;;
48026;SDS011;50714;49.208;5.364;2023-03-20T04:28:17;13.50;;;10.85;;
48026;SDS011;50714;49.208;5.364;2023-03-20T04:38:18;13.18;;;10.93;;
48026;SDS011;50714;49.208;5.364;2023-03-20T04:48:19;15.32;;;12.52;;
48026;SDS011;50714;49.208;5.364;2023-03-20T04:58:19;16.60;;;13.10;;
48026;SDS011;50714;49.208;5.364;2023-03-20T05:08:21;13.30;;;10.95;;
48026;SDS011;50714;49.208;5.364;2023-03-20T05:18:21;13.27;;;11.15;;
48026;SDS011;50714;49.208;5.364;2023-03-20T05:28:21;14.63;;;12.23;;
48026;SDS011;50714;49.208;5.364;2023-03-20T05:38:22;14.32;;;12.27;;
48026;SDS011;50714;49.208;5.364;2023-03-20T05:48:22;13.70;;;11.85;;
48026;SDS011;50714;49.208;5.364;2023-03-20T05:58:23;11.40;;;9.52;;
48026;SDS011;50714;49.208;5.364;2023-03-20T06:08:23;12.30;;;9.85;;
48026;SDS011;50714;49.208;5.364;2023-03-20T06:18:23;13.88;;;11.80;;
48026;SDS011;50714;49.208;5.364;2023-03-20T06:28:24;12.82;;;11.43;;
48026;SDS011;50714;49.208;5.364;2023-03-20T06:38:24;11.73;;;9.23;;
48026;SDS011;50714;49.208;5.364;2023-03-20T06:48:24;15.00;;;13.40;;
48026;SDS011;50714;49.208;5.364;2023-03-20T06:58:25;48.83;;;27.65;;
48026;SDS011;50714;49.208;5.364;2023-03-20T07:08:26;21.40;;;15.55;;
48026;SDS011;50714;49.208;5.364;2023-03-20T07:18:26;14.10;;;11.60;;
48026;SDS011;50714;49.208;5.364;2023-03-20T07:28:27;8.75;;;6.70;;
48026;SDS011;50714;49.208;5.364;2023-03-20T07:38:27;6.15;;;4.85;;
48026;SDS011;50714;49.208;5.364;2023-03-20T07:48:27;7.57;;;5.63;;
48026;SDS011;50714;49.208;5.364;2023-03-20T07:58:28;6.30;;;5.18;;
48026;SDS011;50714;49.208;5.364;2023-03-20T08:08:28;6.40;;;4.00;;
48026;SDS011;50714;49.208;5.364;2023-03-20T08:18:28;6.45;;;5.20;;
48026;SDS011;50714;49.208;5.364;2023-03-20T08:28:29;8.80;;;7.32;;
48026;SDS011;50714;49.208;5.364;2023-03-20T08:38:29;6.55;;;5.43;;
48026;SDS011;50714;49.208;5.364;2023-03-20T08:48:29;5.22;;;4.10;;
48026;SDS011;50714;49.208;5.364;2023-03-20T08:58:30;5.47;;;3.33;;
48026;SDS011;50714;49.208;5.364;2023-03-20T09:08:30;9.70;;;4.88;;
48026;SDS011;50714;49.208;5.364;2023-03-20T09:18:31;17.58;;;12.02;;
48026;SDS011;50714;49.208;5.364;2023-03-20T09:28:31;13.63;;;8.60;;
48026;SDS011;50714;49.208;5.364;2023-03-20T09:38:31;14.07;;;9.05;;
48026;SDS011;50714;49.208;5.364;2023-03-20T09:58:33;6.07;;;4.25;;
48026;SDS011;50714;49.208;5.364;2023-03-20T10:08:37;3.08;;;2.17;;
48026;SDS011;50714;49.208;5.364;2023-03-20T10:18:39;3.28;;;1.58;;
48026;SDS011;50714;49.208;5.364;2023-03-20T10:59:17;1.90;;;1.13;;
48026;SDS011;50714;49.208;5.364;2023-03-20T11:09:23;2.05;;;1.27;;
48026;SDS011;50714;49.208;5.364;2023-03-20T11:19:25;2.90;;;1.60;;
48026;SDS011;50714;49.208;5.364;2023-03-20T11:29:28;2.60;;;1.58;;
48026;SDS011;50714;49.208;5.364;2023-03-20T11:39:33;3.47;;;2.33;;
48026;SDS011;50714;49.208;5.364;2023-03-20T11:49:53;3.63;;;1.80;;
48026;SDS011;50714;49.208;5.364;2023-03-20T11:59:55;3.45;;;1.80;;
48026;SDS011;50714;49.208;5.364;2023-03-20T12:09:57;3.75;;;1.73;;
48026;SDS011;50714;49.208;5.364;2023-03-20T12:20:03;3.22;;;1.50;;
48026;SDS011;50714;49.208;5.364;2023-03-20T12:40:44;2.63;;;1.25;;
48026;SDS011;50714;49.208;5.364;2023-03-20T12:50:53;13.80;;;9.40;;
48026;SDS011;50714;49.208;5.364;2023-03-20T13:01:20;11.23;;;7.05;;
48026;SDS011;50714;49.208;5.364;2023-03-20T13:21:58;6.43;;;3.95;;
48026;SDS011;50714;49.208;5.364;2023-03-20T13:42:28;6.75;;;3.90;;
48026;SDS011;50714;49.208;5.364;2023-03-20T13:52:35;3.20;;;2.25;;
48026;SDS011;50714;49.208;5.364;2023-03-20T14:02:47;3.78;;;2.20;;
48026;SDS011;50714;49.208;5.364;2023-03-20T14:12:51;4.90;;;2.40;;
48026;SDS011;50714;49.208;5.364;2023-03-20T14:22:58;3.20;;;1.30;;
48026;SDS011;50714;49.208;5.364;2023-03-20T14:53:35;4.55;;;2.88;;
48026;SDS011;50714;49.208;5.364;2023-03-20T15:03:35;5.70;;;3.70;;
48026;SDS011;50714;49.208;5.364;2023-03-20T15:13:39;5.93;;;3.40;;
48026;SDS011;50714;49.208;5.364;2023-03-20T15:23:43;5.38;;;3.08;;
48026;SDS011;50714;49.208;5.364;2023-03-20T15:33:44;6.18;;;3.80;;
48026;SDS011;50714;49.208;5.364;2023-03-20T15:43:44;7.20;;;3.93;;
48026;SDS011;50714;49.208;5.364;2023-03-20T15:53:46;5.45;;;3.38;;
48026;SDS011;50714;49.208;5.364;2023-03-20T16:03:47;4.47;;;3.42;;
48026;SDS011;50714;49.208;5.364;2023-03-20T16:13:49;5.03;;;3.10;;
48026;SDS011;50714;49.208;5.364;2023-03-20T16:23:52;6.40;;;3.75;;
48026;SDS011;50714;49.208;5.364;2023-03-20T16:34:08;9.13;;;8.23;;
48026;SDS011;50714;49.208;5.364;2023-03-20T16:44:18;4.03;;;2.50;;
48026;SDS011;50714;49.208;5.364;2023-03-20T16:54:22;3.92;;;2.42;;
48026;SDS011;50714;49.208;5.364;2023-03-20T17:04:35;4.63;;;2.72;;
48026;SDS011;50714;49.208;5.364;2023-03-20T17:14:37;4.63;;;2.67;;
48026;SDS011;50714;49.208;5.364;2023-03-20T17:24:39;5.75;;;3.00;;
48026;SDS011;50714;49.208;5.364;2023-03-20T17:34:39;15.57;;;10.13;;
48026;SDS011;50714;49.208;5.364;2023-03-20T17:44:41;10.15;;;6.63;;
48026;SDS011;50714;49.208;5.364;2023-03-20T17:54:42;7.22;;;5.20;;
48026;SDS011;50714;49.208;5.364;2023-03-20T18:04:44;5.82;;;3.78;;
48026;SDS011;50714;49.208;5.364;2023-03-20T18:14:45;5.13;;;3.47;;
48026;SDS011;50714;49.208;5.364;2023-03-20T18:24:45;14.27;;;11.23;;
48026;SDS011;50714;49.208;5.364;2023-03-20T18:34:45;17.58;;;11.90;;
48026;SDS011;50714;49.208;5.364;2023-03-20T18:44:46;8.60;;;6.20;;
48026;SDS011;50714;49.208;5.364;2023-03-20T18:54:46;10.07;;;8.52;;
48026;SDS011;50714;49.208;5.364;2023-03-20T19:04:47;5.90;;;4.10;;
48026;SDS011;50714;49.208;5.364;2023-03-20T19:14:47;6.35;;;5.25;;
48026;SDS011;50714;49.208;5.364;2023-03-20T19:24:47;7.38;;;4.65;;
48026;SDS011;50714;49.208;5.364;2023-03-20T19:34:48;4.72;;;2.80;;
48026;SDS011;50714;49.208;5.364;2023-03-20T19:44:48;8.07;;;5.40;;
48026;SDS011;50714;49.208;5.364;2023-03-20T19:54:48;7.28;;;5.75;;
48026;SDS011;50714;49.208;5.364;2023-03-20T20:04:49;7.40;;;5.60;;
48026;SDS011;50714;49.208;5.364;2023-03-20T20:14:49;9.15;;;6.45;;
48026;SDS011;50714;49.208;5.364;2023-03-20T20:24:50;9.20;;;7.75;;
48026;SDS011;50714;49.208;5.364;2023-03-20T20:34:52;8.25;;;5.95;;
48026;SDS011;50714;49.208;5.364;2023-03-20T20:44:53;6.05;;;4.05;;
48026;SDS011;50714;49.208;5.364;2023-03-20T20:54:53;5.47;;;4.00;;
48026;SDS011;50714;49.208;5.364;2023-03-20T21:04:53;5.40;;;4.45;;
48026;SDS011;50714;49.208;5.364;2023-03-20T21:14:54;7.80;;;5.15;;
48026;SDS011;50714;49.208;5.364;2023-03-20T21:24:55;6.95;;;4.55;;
48026;SDS011;50714;49.208;5.364;2023-03-20T21:34:55;7.15;;;5.13;;
48026;SDS011;50714;49.208;5.364;2023-03-20T21:44:55;7.10;;;4.95;;
48026;SDS011;50714;49.208;5.364;2023-03-20T21:54:58;11.00;;;8.88;;
48026;SDS011;50714;49.208;5.364;2023-03-20T22:05:00;9.05;;;8.10;;
48026;SDS011;50714;49.208;5.364;2023-03-20T22:15:00;10.77;;;8.55;;
48026;SDS011;50714;49.208;5.364;2023-03-20T22:25:01;7.60;;;5.57;;
48026;SDS011;50714;49.208;5.364;2023-03-20T22:35:01;7.38;;;5.47;;
48026;SDS011;50714;49.208;5.364;2023-03-20T22:45:01;5.72;;;4.55;;
48026;SDS011;50714;49.208;5.364;2023-03-20T22:55:02;8.52;;;4.30;;
48026;SDS011;50714;49.208;5.364;2023-03-20T23:05:03;4.85;;;3.53;;
48026;SDS011;50714;49.208;5.364;2023-03-20T23:15:04;4.15;;;3.00;;
48026;SDS011;50714;49.208;5.364;2023-03-20T23:25:05;5.70;;;3.80;;
48026;SDS011;50714;49.208;5.364;2023-03-20T23:35:07;4.97;;;3.20;;
48026;SDS011;50714;49.208;5.364;2023-03-20T23:45:08;4.78;;;2.72;;
48026;SDS011;50714;49.208;5.364;2023-03-20T23:55:09;4.85;;;2.92;;
